createdAt,value
2023-03-22T00:02:14.041Z,3.10
2023-03-22T00:04:43.214Z,3.17
2023-03-22T00:07:12.632Z,3.90
2023-03-22T00:09:54.578Z,3.13
2023-03-22T00:12:23.738Z,2.83
2023-03-22T00:14:53.592Z,2.57
2023-03-22T00:17:23.076Z,3.20
2023-03-22T00:19:54.652Z,3.13
2023-03-22T00:22:21.905Z,3.00
2023-03-22T00:24:53.494Z,3.17
2023-03-22T00:27:20.124Z,3.20
2023-03-22T00:29:47.233Z,2.97
2023-03-22T00:32:20.829Z,2.63
2023-03-22T00:34:49.819Z,2.97
2023-03-22T00:37:27.992Z,3.17
2023-03-22T00:39:57.678Z,3.20
2023-03-22T00:42:27.035Z,4.33
2023-03-22T00:44:53.704Z,3.43
2023-03-22T00:47:27.717Z,2.83
2023-03-22T00:49:56.974Z,3.07
2023-03-22T00:52:25.677Z,3.40
2023-03-22T00:54:54.657Z,3.67
2023-03-22T00:57:22.187Z,4.30
2023-03-22T00:59:53.923Z,4.60
2023-03-22T01:02:20.708Z,4.60
2023-03-22T01:04:48.301Z,4.60
2023-03-22T01:07:17.747Z,4.83
2023-03-22T01:09:52.598Z,3.80
2023-03-22T01:12:21.652Z,4.33
2023-03-22T01:14:51.376Z,3.50
2023-03-22T01:17:20.426Z,4.40
2023-03-22T01:19:47.213Z,5.10
2023-03-22T01:22:18.685Z,4.37
2023-03-22T01:24:46.046Z,4.00
2023-03-22T01:27:15.093Z,4.43
2023-03-22T01:29:44.068Z,3.30
2023-03-22T01:32:10.972Z,3.73
2023-03-22T01:34:38.027Z,4.27
2023-03-22T01:37:07.008Z,3.90
2023-03-22T01:39:35.302Z,3.70
2023-03-22T01:42:05.776Z,3.60
2023-03-22T01:44:32.841Z,2.90
2023-03-22T01:47:04.568Z,3.87
2023-03-22T01:49:34.421Z,3.63
2023-03-22T01:52:07.114Z,4.80
2023-03-22T01:55:09.774Z,3.80
2023-03-22T01:57:45.748Z,4.27
2023-03-22T02:00:20.684Z,3.53
2023-03-22T02:03:15.476Z,3.60
2023-03-22T02:05:48.442Z,3.03
2023-03-22T02:08:17.991Z,3.43
2023-03-22T02:10:54.965Z,3.07
2023-03-22T02:14:01.231Z,3.03
2023-03-22T02:16:51.004Z,3.50
2023-03-22T02:19:29.275Z,4.43
2023-03-22T02:22:06.682Z,3.73
2023-03-22T02:25:07.425Z,3.33
2023-03-22T02:27:53.091Z,3.17
2023-03-22T02:30:28.795Z,3.10
2023-03-22T02:33:13.904Z,3.00
2023-03-22T02:35:50.519Z,2.93
2023-03-22T02:38:17.542Z,3.30
2023-03-22T02:40:52.944Z,2.83
2023-03-22T02:43:38.834Z,3.57
2023-03-22T02:46:12.928Z,2.87
2023-03-22T02:48:49.185Z,2.90
2023-03-22T02:51:32.679Z,2.60
2023-03-22T02:54:08.303Z,2.90
2023-03-22T02:56:44.635Z,2.80
2023-03-22T02:59:17.491Z,2.80
2023-03-22T03:01:57.333Z,2.30
2023-03-22T03:04:35.528Z,2.83
2023-03-22T03:07:07.236Z,2.90
2023-03-22T03:09:40.055Z,3.40
2023-03-22T03:12:18.730Z,3.10
2023-03-22T03:14:50.844Z,3.10
2023-03-22T03:17:47.455Z,3.20
2023-03-22T03:20:32.159Z,3.60
2023-03-22T03:23:19.917Z,3.43
2023-03-22T03:25:52.920Z,3.07
2023-03-22T03:28:30.258Z,2.93
2023-03-22T03:31:06.574Z,3.63
2023-03-22T03:33:41.445Z,3.13
2023-03-22T03:36:11.578Z,3.30
2023-03-22T03:38:46.459Z,3.60
2023-03-22T03:41:22.673Z,2.80
2023-03-22T03:43:56.126Z,3.80
2023-03-22T03:46:22.843Z,3.13
2023-03-22T03:48:54.309Z,2.57
2023-03-22T03:51:24.225Z,3.10
2023-03-22T03:53:53.386Z,3.30
2023-03-22T03:56:23.047Z,2.80
2023-03-22T03:58:55.826Z,3.00
2023-03-22T04:01:30.451Z,2.73
2023-03-22T04:04:10.967Z,3.30
2023-03-22T04:06:50.938Z,3.37
2023-03-22T04:09:26.989Z,3.33
2023-03-22T04:11:59.088Z,3.20
2023-03-22T04:14:28.384Z,3.27
2023-03-22T04:16:58.779Z,3.20
2023-03-22T04:19:26.041Z,3.30
2023-03-22T04:21:57.588Z,3.90
2023-03-22T04:24:24.384Z,3.60
2023-03-22T04:26:53.855Z,3.37
2023-03-22T04:29:27.253Z,3.47
2023-03-22T04:32:01.352Z,3.50
2023-03-22T04:34:37.953Z,3.33
2023-03-22T04:37:09.914Z,3.80
2023-03-22T04:39:41.261Z,3.50
2023-03-22T04:42:31.733Z,3.23
2023-03-22T04:45:29.341Z,3.50
2023-03-22T04:48:02.449Z,3.27
2023-03-22T04:50:33.291Z,2.57
2023-03-22T04:53:05.956Z,2.70
2023-03-22T04:55:34.298Z,2.93
2023-03-22T04:58:03.427Z,3.07
2023-03-22T05:29:11.178Z,3.20
2023-03-22T05:31:58.761Z,3.07
2023-03-22T05:34:35.484Z,3.00
2023-03-22T05:37:16.934Z,3.10
2023-03-22T05:39:55.759Z,2.87
2023-03-22T05:42:32.399Z,2.83
2023-03-22T05:45:06.802Z,2.53
2023-03-22T05:47:35.000Z,2.70
2023-03-22T05:50:09.607Z,2.50
2023-03-22T05:52:39.346Z,3.00
2023-03-22T05:55:32.325Z,2.70
2023-03-22T05:58:02.349Z,2.47
2023-03-22T06:00:34.365Z,3.03
2023-03-22T06:03:29.775Z,2.73
2023-03-22T06:06:10.797Z,2.70
2023-03-22T06:08:47.051Z,2.87
2023-03-22T06:11:13.839Z,4.60
2023-03-22T06:13:42.825Z,4.00
2023-03-22T06:16:11.210Z,3.60
2023-03-22T06:18:41.916Z,3.80
2023-03-22T06:21:13.943Z,3.97
2023-03-22T06:23:46.812Z,3.67
2023-03-22T06:26:15.983Z,3.67
2023-03-22T06:28:43.171Z,3.17
2023-03-22T06:31:16.445Z,3.20
2023-03-22T06:33:58.567Z,2.70
2023-03-22T06:36:42.890Z,2.30
2023-03-22T06:39:38.388Z,2.83
2023-03-22T06:42:05.325Z,2.90
2023-03-22T06:44:35.035Z,2.67
2023-03-22T06:47:30.028Z,2.60
2023-03-22T06:50:12.973Z,2.10
2023-03-22T06:53:02.344Z,2.83
2023-03-22T06:55:33.461Z,2.53
2023-03-22T06:58:07.787Z,3.23
2023-03-22T07:00:39.838Z,2.13
2023-03-22T07:03:10.828Z,2.60
2023-03-22T07:05:52.929Z,3.20
2023-03-22T07:08:19.684Z,2.70
2023-03-22T07:10:51.397Z,2.60
2023-03-22T07:13:20.925Z,2.53
2023-03-22T07:16:02.480Z,2.60
2023-03-22T07:18:49.612Z,2.30
2023-03-22T07:21:18.938Z,2.70
2023-03-22T07:23:50.565Z,3.63
2023-03-22T07:26:22.559Z,2.90
2023-03-22T07:28:55.609Z,2.83
2023-03-22T07:31:27.205Z,3.03
2023-03-22T07:34:07.177Z,2.63
2023-03-22T07:36:56.934Z,2.90
2023-03-22T07:39:29.375Z,2.60
2023-03-22T07:41:59.787Z,3.60
2023-03-22T07:44:29.267Z,3.40
2023-03-22T07:47:41.382Z,2.80
2023-03-22T07:50:22.716Z,2.90
2023-03-22T07:52:56.148Z,2.13
2023-03-22T07:55:28.242Z,3.57
2023-03-22T07:58:01.964Z,2.87
2023-03-22T08:00:31.135Z,2.87
2023-03-22T08:03:36.606Z,2.20
2023-03-22T08:06:18.962Z,3.27
2023-03-22T08:08:46.075Z,3.30
2023-03-22T08:11:20.315Z,3.90
2023-03-22T08:13:49.329Z,2.70
2023-03-22T08:16:18.487Z,3.60
2023-03-22T08:18:47.685Z,3.30
2023-03-22T08:21:22.674Z,3.40
2023-03-22T08:23:57.533Z,4.17
2023-03-22T08:26:42.893Z,5.30
2023-03-22T08:29:18.919Z,3.73
2023-03-22T08:31:50.455Z,4.47
2023-03-22T08:34:20.441Z,2.80
2023-03-22T08:36:49.634Z,3.20
2023-03-22T08:39:18.590Z,3.83
2023-03-22T08:42:07.473Z,3.97
2023-03-22T08:44:39.178Z,3.50
2023-03-22T08:47:08.309Z,3.83
2023-03-22T08:49:37.912Z,4.13
2023-03-22T08:52:12.621Z,3.53
2023-03-22T08:55:11.466Z,3.77
2023-03-22T08:58:06.773Z,3.90
2023-03-22T09:00:57.515Z,4.03
2023-03-22T09:03:45.179Z,4.97
2023-03-22T09:06:14.812Z,3.00
2023-03-22T09:08:52.123Z,3.40
2023-03-22T09:11:26.268Z,3.30
2023-03-22T09:13:56.100Z,3.37
2023-03-22T09:16:25.094Z,4.57
2023-03-22T09:18:56.749Z,3.50
2023-03-22T09:21:29.970Z,4.43
2023-03-22T09:24:07.639Z,3.47
2023-03-22T09:26:44.885Z,3.20
2023-03-22T09:29:16.100Z,3.07
2023-03-22T09:31:48.982Z,3.87
2023-03-22T09:34:25.790Z,4.63
2023-03-22T09:36:58.686Z,3.67
2023-03-22T09:39:29.678Z,2.87
2023-03-22T09:42:04.267Z,3.67
2023-03-22T09:44:45.704Z,3.37
2023-03-22T09:47:43.848Z,3.27
2023-03-22T09:50:26.702Z,3.70
2023-03-22T09:52:55.827Z,2.80
2023-03-22T09:55:47.706Z,2.50
2023-03-22T09:58:35.913Z,3.40
2023-03-22T10:01:29.222Z,3.07
2023-03-22T10:04:18.549Z,2.37
2023-03-22T10:06:55.372Z,2.57
2023-03-22T10:09:32.756Z,2.20
2023-03-22T10:12:25.067Z,2.07
2023-03-22T10:15:06.107Z,4.40
2023-03-22T10:17:36.650Z,3.30
2023-03-22T10:20:22.149Z,2.97
2023-03-22T10:22:53.609Z,2.50
2023-03-22T10:25:29.601Z,2.77
2023-03-22T10:27:57.937Z,3.00
2023-03-22T10:30:32.478Z,2.00
2023-03-22T10:33:04.656Z,2.20
2023-03-22T10:35:39.492Z,2.53
2023-03-22T10:38:21.662Z,2.60
2023-03-22T10:40:52.148Z,1.93
2023-03-22T10:43:26.402Z,2.87
2023-03-22T10:45:57.160Z,2.10
2023-03-22T10:48:33.656Z,3.10
2023-03-22T10:51:05.442Z,2.13
2023-03-22T10:53:45.732Z,1.80
2023-03-22T10:56:23.816Z,1.90
2023-03-22T10:58:57.442Z,1.70
2023-03-22T11:01:33.172Z,1.93
2023-03-22T11:04:13.714Z,2.00
2023-03-22T11:06:56.224Z,2.30
2023-03-22T11:09:28.468Z,1.90
2023-03-22T11:12:02.972Z,1.63
2023-03-22T11:14:45.602Z,2.00
2023-03-22T11:17:17.788Z,1.60
2023-03-22T11:19:55.496Z,2.60
2023-03-22T11:22:27.635Z,1.40
2023-03-22T11:25:01.045Z,1.70
2023-03-22T11:27:33.146Z,2.00
2023-03-22T11:30:27.408Z,1.83
2023-03-22T11:33:21.990Z,1.57
2023-03-22T11:35:58.503Z,1.47
2023-03-22T11:39:21.405Z,1.80
2023-03-22T11:42:06.487Z,1.90
2023-03-22T11:44:40.218Z,1.37
2023-03-22T11:47:13.375Z,1.80
2023-03-22T11:49:49.929Z,1.73
2023-03-22T11:52:27.734Z,1.37
2023-03-22T11:54:59.183Z,1.73
2023-03-22T11:57:31.591Z,1.60
2023-03-22T12:00:20.595Z,1.20
2023-03-22T12:03:13.945Z,2.10
2023-03-22T12:05:46.723Z,1.63
2023-03-22T12:08:26.039Z,1.27
2023-03-22T12:11:36.444Z,2.90
2023-03-22T12:14:07.520Z,3.20
2023-03-22T12:16:51.369Z,2.03
2023-03-22T12:20:06.213Z,2.00
2023-03-22T12:22:36.603Z,1.50
2023-03-22T12:25:14.956Z,2.37
2023-03-22T12:27:48.757Z,2.00
2023-03-22T12:30:22.386Z,2.17
2023-03-22T12:33:04.290Z,2.17
2023-03-22T12:35:37.369Z,1.80
2023-03-22T12:38:46.265Z,2.30
2023-03-22T12:41:27.393Z,2.23
2023-03-22T12:44:04.142Z,1.80
2023-03-22T12:46:47.151Z,1.93
2023-03-22T12:49:40.616Z,1.70
2023-03-22T12:52:19.570Z,1.83
2023-03-22T12:54:55.826Z,1.70
2023-03-22T12:57:24.881Z,2.40
2023-03-22T13:00:07.326Z,1.83
2023-03-22T13:02:35.991Z,2.03
2023-03-22T13:05:09.510Z,2.00
2023-03-22T13:07:59.004Z,1.77
2023-03-22T13:10:36.129Z,1.80
2023-03-22T13:13:26.298Z,2.00
2023-03-22T13:16:20.206Z,1.60
2023-03-22T13:18:50.062Z,1.87
2023-03-22T13:21:22.576Z,2.13
2023-03-22T13:24:15.515Z,1.37
2023-03-22T13:27:01.600Z,1.40
2023-03-22T13:29:36.434Z,1.43
2023-03-22T13:32:21.334Z,1.00
2023-03-22T13:34:53.328Z,1.50
2023-03-22T13:37:40.366Z,1.17
2023-03-22T13:40:40.247Z,1.53
2023-03-22T13:43:25.294Z,1.40
2023-03-22T13:46:07.239Z,2.63
2023-03-22T13:48:50.807Z,1.30
2023-03-22T13:51:23.573Z,1.30
2023-03-22T13:54:18.789Z,1.13
2023-03-22T13:56:48.603Z,1.27
2023-03-22T13:59:30.123Z,0.80
2023-03-22T14:02:16.389Z,1.00
2023-03-22T14:04:56.604Z,1.00
2023-03-22T14:07:26.743Z,1.70
2023-03-22T14:10:03.273Z,1.23
2023-03-22T14:12:51.280Z,1.13
2023-03-22T14:15:35.344Z,1.00
2023-03-22T14:18:13.962Z,1.43
2023-03-22T14:20:50.703Z,1.30
2023-03-22T14:54:22.172Z,0.70
2023-03-22T14:56:49.951Z,0.87
2023-03-22T14:59:22.523Z,0.90
2023-03-22T15:02:03.365Z,1.00
2023-03-22T15:04:37.263Z,1.00
2023-03-22T15:07:08.921Z,0.93
2023-03-22T15:09:38.846Z,0.87
2023-03-22T15:12:06.586Z,1.67
2023-03-22T15:14:39.289Z,0.90
2023-03-22T15:17:08.324Z,0.97
2023-03-22T15:19:38.732Z,0.87
2023-03-22T15:22:11.388Z,0.90
2023-03-22T15:24:51.396Z,0.73
2023-03-22T15:27:26.638Z,1.20
2023-03-22T15:29:56.290Z,0.80
2023-03-22T15:32:28.011Z,0.93
2023-03-22T15:34:56.299Z,0.83
2023-03-22T15:37:30.062Z,1.23
2023-03-22T15:40:04.509Z,0.80
2023-03-22T15:42:40.058Z,0.87
2023-03-22T15:45:23.261Z,0.97
2023-03-22T20:09:06.260Z,2.90
2023-03-22T20:14:06.408Z,2.70
2023-03-22T20:16:37.160Z,2.87
2023-03-22T20:19:06.863Z,2.27
2023-03-22T20:21:35.059Z,2.43
2023-03-22T20:38:23.255Z,2.53
2023-03-22T20:40:50.422Z,2.70
2023-03-22T20:43:17.409Z,3.03
2023-03-22T20:45:46.624Z,2.63
2023-03-22T20:48:13.708Z,3.00
2023-03-22T20:50:50.846Z,2.67
2023-03-22T20:53:20.205Z,3.03
2023-03-22T20:55:52.144Z,2.70
2023-03-22T20:58:19.032Z,2.40
2023-03-22T21:00:46.392Z,2.43
2023-03-22T21:03:16.893Z,2.47
2023-03-22T21:05:48.531Z,1.63
2023-03-22T21:08:18.806Z,2.50
2023-03-22T21:10:47.900Z,3.10
2023-03-22T21:13:19.484Z,2.20
2023-03-22T21:15:46.603Z,2.60
2023-03-22T21:18:19.215Z,2.03
2023-03-22T21:20:48.967Z,2.83
2023-03-22T21:23:18.898Z,2.87
2023-03-22T21:25:49.663Z,3.27
2023-03-22T21:28:26.121Z,2.97
2023-03-22T21:30:54.507Z,2.70
2023-03-22T21:33:31.028Z,3.03
2023-03-22T21:36:01.027Z,2.53
2023-03-22T21:38:27.981Z,3.33
2023-03-22T21:40:58.677Z,2.73
2023-03-22T21:43:27.057Z,3.07
2023-03-22T21:45:57.919Z,3.20
2023-03-22T21:48:29.187Z,3.30
2023-03-22T21:51:00.422Z,3.17
2023-03-22T21:53:27.243Z,4.00
2023-03-22T21:55:56.587Z,3.20
2023-03-22T21:58:25.663Z,2.80
2023-03-22T22:00:57.215Z,2.70
2023-03-22T22:03:32.333Z,2.20
2023-03-22T22:05:59.472Z,2.90
2023-03-22T22:08:31.442Z,2.47
2023-03-22T22:11:04.317Z,2.77
2023-03-22T22:13:31.926Z,3.13
2023-03-22T22:16:07.241Z,3.17
2023-03-22T22:18:41.918Z,3.43
2023-03-22T22:21:16.026Z,4.00
2023-03-22T22:23:49.024Z,4.23
2023-03-22T22:26:19.720Z,3.70
2023-03-22T22:28:55.958Z,3.33
2023-03-22T22:31:30.349Z,3.67
2023-03-22T22:34:01.225Z,2.90
2023-03-22T22:36:31.673Z,3.10
2023-03-22T22:39:04.804Z,3.40
2023-03-22T22:41:34.271Z,3.17
2023-03-22T22:44:01.986Z,2.40
2023-03-22T22:46:31.736Z,2.70
2023-03-22T22:48:58.915Z,2.50
2023-03-22T22:51:30.620Z,3.33
2023-03-22T22:53:57.858Z,2.90
2023-03-22T22:56:25.033Z,3.00
2023-03-22T22:58:56.788Z,2.77
2023-03-22T23:01:23.653Z,2.77
2023-03-22T23:03:54.977Z,2.60
2023-03-22T23:06:26.485Z,2.60
2023-03-22T23:08:55.865Z,2.80
2023-03-22T23:11:24.851Z,2.63
2023-03-22T23:13:58.245Z,2.57
2023-03-22T23:16:30.253Z,2.10
2023-03-22T23:18:58.420Z,2.73
2023-03-22T23:21:34.193Z,2.50
2023-03-22T23:24:03.629Z,2.53
2023-03-22T23:26:30.851Z,2.20
2023-03-22T23:29:00.898Z,2.00
2023-03-22T23:31:30.367Z,2.80
2023-03-22T23:34:03.251Z,1.90
2023-03-22T23:36:32.378Z,2.20
2023-03-22T23:39:04.862Z,2.43
2023-03-22T23:41:36.212Z,2.67
2023-03-22T23:44:06.061Z,1.80
2023-03-22T23:46:35.214Z,2.17
2023-03-22T23:49:02.348Z,1.97
2023-03-22T23:51:30.505Z,2.43
2023-03-22T23:53:58.807Z,1.73
2023-03-22T23:56:28.847Z,2.00
2023-03-22T23:58:56.482Z,2.30
